Disclaimer

Please do not use the information listed here in-flight or in-navigation, as they are not provided to us by the airports but are provided by volunteers, so they might be outdated.

Search


Regions


Airport information page

No radio frequency information is available.

Airport informations:
Latitude: 51° 27' 00.50" N
Longitude: 005° 22' 28.30" E
Elevation: 74 feet - 23 meters
Operating hours: Remarks
Operating agency: Military
Timezone: UTC+1(+2DT) - Last Sunday in March to last Sunday in October
Fuel: N/A

Runway information:
04/22 - 9843 x 148 feet< - >3000 x 45 meters

Recent METARs:
EHEH 191729Z AUTO 05010KT 020V100 9999 FEW015CB BKN030 OVC036 04/02 Q1016 BLU 05014KT 9999 FEW027 SCT050 BKN100 TEMPO 05018G30KT SCT020 BKN040
EHEH 191755Z AUTO 05014KT 010V080 9999 FEW025 BKN029 BKN033 05/01 Q1015 BLU 05014KT 9999 FEW027 SCT040 BKN100 TEMPO 05015G26KT SCT020 BKN040
EHEH 191825Z AUTO 05015KT 020V090 9999 NCD 05/00 Q1016 BLU 05014KT 9999 FEW027 SCT040 BKN100 TEMPO 05015G26KT SCT020 BKN040

Airport on the map: